メインページ
METAR-TAF:

METAR-TAF

空港 :

ハイアニス, マサチューセッツ州, アメリカ合衆国

緯度: 41-40-19N, 経度: 070-16-11W, 海抜: 15m

現時点の気象観測

当レポートは57分前の04:56(UTC)に作成
北/北東の風 18kt、最大25ktの突風を伴う
気温 7°C
湿度 87%
気圧 1008 hPa
視程: 4.0km
高度600ftの曇り
小雨, 靄

METAR: KHYA 040456Z AUTO 03018G25KT 2 1/2SM -RA BR OVC006 07/05 A2978 RMK AO2 PK WND 04029/0428 CIG 004V010 SLP086 P0000 T00670050 400780067

時間: 01:53 (05:53 UTC)

予報

当レポートは20分前の05:33(UTC)に作成
予報は04日の 06時(UTC)から 05日の 06時(UTC)まで有効
北/北東の風 19kt、最大32ktの突風を伴う
視程: 4.8km
高度500ftの曇り
小霧雨, 靄
04日の 1000時(UTC)から
北/北東の風 18kt、最大29ktの突風を伴う
視程: 10km
高度800ftの曇り
近辺でにわか雨
04日の 1700時(UTC)から
北/北東の風 15kt、最大23ktの突風を伴う
視程: 10km
高度1000ftの曇り
04日の 2200時(UTC)から
北/北東の風 10kt
視程: 10km
高度1500ftの曇り
05日の 0000時(UTC)から
北/北東の風 7kt
視程: 10km
高度2000ftの千切れ雲あり

TAF: KHYA 040533Z 0406/0506 03019G32KT 3SM -DZ BR OVC005 FM041000 03018G29KT P6SM VCSH OVC008 FM041700 02015G23KT P6SM OVC010 FM042200 03010KT P6SM OVC015 FM050000 03007KT P6SM BKN020

4,000以上の空港の気象観測と天気予報(METAR報とTAF報)

利用可能な観測所は地図上に黄色い丸と赤い丸で示す。

丸の上にカーソルを重ねると観測所名を参照できる。

次にクリックすると気象観測と天気予報を参照できる。

マップの切り替え:黒色「×」印の緑ボタンをクリックして拡大、「-」印の緑ボタンをクリックして縮小、緑色の三角印をクリックして隣りの地図に切り替え


METAR-TAF: